createdAt,value
2022-11-17T00:02:06.754Z,94800.00
2022-11-17T00:06:09.920Z,94792.00
2022-11-17T00:10:48.344Z,94788.00
2022-11-17T00:14:50.384Z,94784.00
2022-11-17T00:19:10.954Z,94776.00
2022-11-17T00:23:14.091Z,94780.00
2022-11-17T00:27:52.389Z,94781.00
2022-11-17T00:32:13.150Z,94776.00
2022-11-17T00:36:31.277Z,94773.00
2022-11-17T00:40:34.380Z,94771.00
2022-11-17T00:44:38.816Z,94763.00
2022-11-17T00:48:41.926Z,94755.00
2022-11-17T00:53:18.663Z,94764.00
2022-11-17T00:57:21.743Z,94770.00
2022-11-17T01:02:00.198Z,94770.00
2022-11-17T01:06:07.830Z,94783.00
2022-11-17T01:10:41.753Z,94779.00
2022-11-17T01:14:45.116Z,94778.00
2022-11-17T01:18:51.235Z,94778.00
2022-11-17T01:23:25.258Z,94774.00
2022-11-17T01:27:28.291Z,94759.00
2022-11-17T01:31:32.998Z,94762.00
2022-11-17T01:35:37.442Z,94754.00
2022-11-17T01:39:40.485Z,94750.00
2022-11-17T01:44:20.404Z,94741.00
2022-11-17T01:48:24.113Z,94737.00
2022-11-17T01:53:03.903Z,94728.00
2022-11-17T01:57:12.577Z,94715.00
2022-11-17T02:01:55.917Z,94721.00
2022-11-17T02:06:05.931Z,94717.00
2022-11-17T02:10:19.411Z,94725.00
2022-11-17T02:14:22.872Z,94719.00
2022-11-17T02:18:26.183Z,94721.00
2022-11-17T02:22:58.249Z,94723.00
2022-11-17T02:27:36.644Z,94710.00
2022-11-17T02:31:48.836Z,94695.00
2022-11-17T02:35:59.158Z,94695.00
2022-11-17T02:40:08.405Z,94684.00
2022-11-17T02:44:40.428Z,94673.00
2022-11-17T02:49:19.921Z,94671.00
2022-11-17T02:53:25.638Z,94662.00
2022-11-17T02:57:59.463Z,94663.00
2022-11-17T03:02:44.071Z,94654.00
2022-11-17T03:06:55.192Z,94647.00
2022-11-17T03:11:02.719Z,94650.00
2022-11-17T03:15:14.787Z,94644.00
2022-11-17T03:19:45.835Z,94644.00
2022-11-17T03:23:55.087Z,94633.00
2022-11-17T03:28:28.387Z,94633.00
2022-11-17T03:32:35.063Z,94626.00
2022-11-17T03:37:07.696Z,94625.00
2022-11-17T03:41:23.804Z,94631.00
2022-11-17T03:45:29.372Z,94623.00
2022-11-17T03:50:09.128Z,94608.00
2022-11-17T03:54:12.735Z,94597.00
2022-11-17T03:58:55.679Z,94599.00
2022-11-17T04:03:26.036Z,94590.00
2022-11-17T04:07:29.070Z,94591.00
2022-11-17T04:12:23.576Z,94582.00
2022-11-17T04:16:28.025Z,94580.00
2022-11-17T04:21:02.340Z,94583.00
2022-11-17T04:25:06.022Z,94577.00
2022-11-17T04:29:40.014Z,94583.00
2022-11-17T04:33:46.146Z,94575.00
2022-11-17T04:38:20.001Z,94579.00
2022-11-17T04:42:23.070Z,94566.00
2022-11-17T04:46:27.394Z,94558.00
2022-11-17T04:50:32.109Z,94557.00
2022-11-17T04:54:35.237Z,94541.00
2022-11-17T04:58:38.247Z,94523.00
2022-11-17T05:03:14.973Z,94519.00
2022-11-17T05:07:19.438Z,94517.00
2022-11-17T05:11:40.404Z,94506.00
2022-11-17T05:16:00.912Z,94507.00
2022-11-17T05:20:03.978Z,94516.00
2022-11-17T05:24:40.477Z,94492.00
2022-11-17T05:28:45.034Z,94511.00
2022-11-17T05:33:18.804Z,94539.00
2022-11-17T05:37:21.848Z,94540.00
2022-11-17T05:41:25.555Z,94536.00
2022-11-17T05:45:29.945Z,94555.00
2022-11-17T05:50:03.542Z,94556.00
2022-11-17T05:54:40.236Z,94559.00
2022-11-17T05:59:24.809Z,94558.00
2022-11-17T06:03:55.150Z,94569.00
2022-11-17T06:08:29.736Z,94572.00
2022-11-17T06:13:03.430Z,94577.00
2022-11-17T06:17:42.348Z,94568.00
2022-11-17T06:22:18.561Z,94567.00
2022-11-17T06:26:52.600Z,94566.00
2022-11-17T06:31:29.671Z,94577.00
2022-11-17T06:36:07.596Z,94573.00
2022-11-17T06:40:13.515Z,94588.00
2022-11-17T06:44:47.355Z,94582.00
2022-11-17T06:49:24.020Z,94581.00
2022-11-17T06:54:00.834Z,94566.00
2022-11-17T06:58:39.782Z,94572.00
2022-11-17T07:03:13.822Z,94558.00
2022-11-17T07:08:11.531Z,94546.00
2022-11-17T07:12:48.466Z,94553.00
2022-11-17T07:16:52.963Z,94563.00
2022-11-17T07:20:56.584Z,94567.00
2022-11-17T07:25:30.607Z,94565.00
2022-11-17T07:30:09.828Z,94548.00
2022-11-17T07:34:45.308Z,94571.00
2022-11-17T07:39:21.638Z,94590.00
2022-11-17T07:43:55.680Z,94591.00
2022-11-17T07:48:32.782Z,94599.00
2022-11-17T07:53:11.459Z,94587.00
2022-11-17T07:57:45.003Z,94578.00
2022-11-17T08:02:21.805Z,94570.00
2022-11-17T08:06:25.119Z,94574.00
2022-11-17T08:11:05.294Z,94563.00
2022-11-17T08:15:42.155Z,94572.00
2022-11-17T08:20:19.316Z,94577.00
2022-11-17T08:24:55.999Z,94588.00
2022-11-17T08:29:02.011Z,94573.00
2022-11-17T08:33:36.216Z,94575.00
2022-11-17T08:38:15.532Z,94567.00
2022-11-17T08:42:18.885Z,94561.00
2022-11-17T08:46:54.284Z,94572.00
2022-11-17T08:51:29.065Z,94572.00
2022-11-17T08:56:02.951Z,94569.00
2022-11-17T09:00:39.824Z,94574.00
2022-11-17T09:05:18.480Z,94588.00
2022-11-17T09:09:21.769Z,94580.00
2022-11-17T09:13:55.951Z,94580.00
2022-11-17T09:17:59.026Z,94578.00
2022-11-17T09:22:37.531Z,94575.00
2022-11-17T09:26:41.284Z,94571.00
2022-11-17T09:31:14.962Z,94557.00
2022-11-17T09:35:18.166Z,94553.00
2022-11-17T09:39:22.714Z,94554.00
2022-11-17T09:43:30.201Z,94540.00
2022-11-17T09:47:40.373Z,94554.00
2022-11-17T09:52:12.142Z,94578.00
2022-11-17T09:56:45.558Z,94577.00
2022-11-17T10:01:06.960Z,94561.00
2022-11-17T10:05:44.021Z,94568.00
2022-11-17T10:10:20.719Z,94564.00
2022-11-17T10:14:59.778Z,94564.00
2022-11-17T10:19:07.765Z,94565.00
2022-11-17T10:23:14.994Z,94584.00
2022-11-17T10:27:45.612Z,94602.00
2022-11-17T10:31:50.282Z,94600.00
2022-11-17T10:36:27.260Z,94574.00
2022-11-17T10:41:03.103Z,94574.00
2022-11-17T10:45:36.830Z,94558.00
2022-11-17T10:50:19.939Z,94559.00
2022-11-17T10:54:50.535Z,94542.00
2022-11-17T10:59:29.807Z,94549.00
2022-11-17T11:03:35.467Z,94554.00
2022-11-17T11:07:41.383Z,94548.00
2022-11-17T11:11:46.355Z,94543.00
2022-11-17T11:15:50.090Z,94548.00
2022-11-17T11:20:28.131Z,94546.00
2022-11-17T11:25:04.348Z,94561.00
2022-11-17T11:29:19.223Z,94544.00
2022-11-17T11:33:33.374Z,94532.00
2022-11-17T11:38:01.871Z,94530.00
2022-11-17T11:42:24.294Z,94528.00
2022-11-17T11:47:08.390Z,94525.00
2022-11-17T11:51:16.900Z,94517.00
2022-11-17T11:55:23.772Z,94523.00
2022-11-17T11:59:38.883Z,94529.00
2022-11-17T12:04:13.110Z,94524.00
2022-11-17T12:08:43.466Z,94517.00
2022-11-17T12:12:48.260Z,94517.00
2022-11-17T12:17:26.397Z,94514.00
2022-11-17T12:21:57.869Z,94518.00
2022-11-17T12:26:31.425Z,94512.00
2022-11-17T12:31:10.872Z,94506.00
2022-11-17T12:35:46.557Z,94509.00
2022-11-17T12:40:35.186Z,94518.00
2022-11-17T12:44:58.192Z,94514.00
2022-11-17T12:49:35.332Z,94510.00
2022-11-17T12:53:53.183Z,94523.00
2022-11-17T12:58:09.199Z,94526.00
2022-11-17T13:02:48.807Z,94517.00
2022-11-17T13:07:09.677Z,94521.00
2022-11-17T13:11:49.626Z,94512.00
2022-11-17T13:16:28.301Z,94510.00
2022-11-17T13:20:31.693Z,94510.00
2022-11-17T13:25:05.637Z,94512.00
2022-11-17T13:29:11.317Z,94513.00
2022-11-17T13:33:23.035Z,94524.00
2022-11-17T13:38:05.745Z,94526.00
2022-11-17T13:42:30.941Z,94530.00
2022-11-17T13:46:45.946Z,94532.00
2022-11-17T13:51:27.838Z,94536.00
2022-11-17T13:55:59.181Z,94533.00
2022-11-17T14:00:02.787Z,94540.00
2022-11-17T14:04:36.882Z,94548.00
2022-11-17T14:09:19.574Z,94544.00
2022-11-17T14:13:51.596Z,94544.00
2022-11-17T14:17:56.460Z,94551.00
2022-11-17T14:22:01.071Z,94548.00
2022-11-17T14:26:41.751Z,94536.00
2022-11-17T14:31:15.946Z,94545.00
2022-11-17T14:39:54.406Z,94542.00
2022-11-17T14:43:58.856Z,94544.00
2022-11-17T14:48:32.909Z,94549.00
2022-11-17T14:52:36.307Z,94543.00
2022-11-17T14:57:12.848Z,94548.00
2022-11-17T15:01:51.123Z,94559.00
2022-11-17T15:05:54.186Z,94557.00
2022-11-17T15:10:30.947Z,94569.00
2022-11-17T15:15:08.164Z,94562.00
2022-11-17T15:19:46.613Z,94564.00
2022-11-17T15:24:20.217Z,94573.00
2022-11-17T15:28:23.482Z,94568.00
2022-11-17T15:33:03.468Z,94579.00
2022-11-17T15:37:41.551Z,94576.00
2022-11-17T15:41:44.982Z,94576.00
2022-11-17T15:45:50.812Z,94562.00
2022-11-17T15:49:58.603Z,94570.00
2022-11-17T15:54:03.308Z,94560.00
2022-11-17T15:58:06.379Z,94560.00
2022-11-17T16:02:43.612Z,94568.00
2022-11-17T16:06:47.591Z,94571.00
2022-11-17T16:10:52.086Z,94558.00
2022-11-17T16:15:10.654Z,94563.00
2022-11-17T16:19:14.188Z,94546.00
2022-11-17T16:23:17.532Z,94555.00
2022-11-17T16:27:54.117Z,94551.00
2022-11-17T16:31:58.627Z,94554.00
2022-11-17T16:36:05.715Z,94564.00
2022-11-17T16:40:39.962Z,94554.00
2022-11-17T16:44:43.147Z,94554.00
2022-11-17T16:48:48.753Z,94545.00
2022-11-17T16:52:51.894Z,94552.00
2022-11-17T16:57:28.672Z,94547.00
2022-11-17T17:01:33.219Z,94554.00
2022-11-17T17:06:09.606Z,94547.00
2022-11-17T17:10:12.918Z,94548.00
2022-11-17T17:14:16.901Z,94536.00
2022-11-17T17:18:19.980Z,94542.00
2022-11-17T17:23:02.919Z,94555.00
2022-11-17T17:27:07.271Z,94550.00
2022-11-17T17:31:10.768Z,94557.00
2022-11-17T17:35:13.908Z,94548.00
2022-11-17T17:39:18.591Z,94553.00
2022-11-17T17:43:21.870Z,94554.00
2022-11-17T17:47:24.985Z,94556.00
2022-11-17T17:51:55.605Z,94557.00
2022-11-17T17:56:04.638Z,94556.00
2022-11-17T18:00:09.118Z,94537.00
2022-11-17T18:04:15.895Z,94537.00
2022-11-17T18:08:19.739Z,94536.00
2022-11-17T18:12:24.198Z,94533.00
2022-11-17T18:16:29.183Z,94556.00
2022-11-17T18:20:32.287Z,94547.00
2022-11-17T18:24:35.361Z,94549.00
2022-11-17T18:29:16.246Z,94544.00
2022-11-17T18:33:19.625Z,94551.00
2022-11-17T18:37:22.970Z,94553.00
2022-11-17T18:41:26.884Z,94563.00
2022-11-17T18:45:31.488Z,94551.00
2022-11-17T18:49:35.251Z,94532.00
2022-11-17T18:54:09.099Z,94539.00
2022-11-17T18:58:12.139Z,94543.00
2022-11-17T19:02:16.656Z,94544.00
2022-11-17T19:06:50.290Z,94546.00
2022-11-17T19:10:54.176Z,94552.00
2022-11-17T19:15:12.434Z,94547.00
2022-11-17T19:19:30.627Z,94557.00
2022-11-17T19:24:08.014Z,94553.00
2022-11-17T19:28:13.711Z,94554.00
2022-11-17T19:32:47.897Z,94546.00
2022-11-17T19:37:26.441Z,94550.00
2022-11-17T19:42:03.274Z,94556.00
2022-11-17T19:46:40.103Z,94557.00
2022-11-17T19:51:18.564Z,94546.00
2022-11-17T19:55:23.230Z,94550.00
2022-11-17T19:59:57.178Z,94555.00
2022-11-17T20:04:33.871Z,94559.00
2022-11-17T20:09:11.542Z,94549.00
2022-11-17T20:13:16.103Z,94542.00
2022-11-17T20:17:50.091Z,94554.00
2022-11-17T20:22:27.111Z,94551.00
2022-11-17T20:27:03.945Z,94553.00
2022-11-17T20:31:10.060Z,94556.00
2022-11-17T20:35:13.241Z,94562.00
2022-11-17T20:39:16.855Z,94549.00
2022-11-17T20:43:51.300Z,94565.00
2022-11-17T20:47:55.742Z,94555.00
2022-11-17T20:52:29.230Z,94547.00
2022-11-17T20:57:06.267Z,94543.00
2022-11-17T21:01:10.728Z,94547.00
2022-11-17T21:05:15.375Z,94556.00
2022-11-17T21:09:18.991Z,94558.00
2022-11-17T21:14:16.568Z,94565.00
2022-11-17T21:18:53.320Z,94557.00
2022-11-17T21:22:57.793Z,94556.00
2022-11-17T21:27:31.492Z,94559.00
2022-11-17T21:31:35.200Z,94573.00
2022-11-17T21:35:38.280Z,94575.00
2022-11-17T21:39:42.777Z,94584.00
2022-11-17T21:43:47.650Z,94569.00
2022-11-17T21:47:53.953Z,94586.00
2022-11-17T21:52:01.190Z,94592.00
2022-11-17T21:56:07.042Z,94597.00
2022-11-17T22:00:11.155Z,94595.00
2022-11-17T22:04:15.894Z,94606.00
2022-11-17T22:08:49.962Z,94605.00
2022-11-17T22:12:54.412Z,94603.00
2022-11-17T22:16:57.574Z,94606.00
2022-11-17T22:21:00.654Z,94598.00
2022-11-17T22:25:29.840Z,94593.00
2022-11-17T22:29:28.260Z,94596.00
2022-11-17T22:34:01.935Z,94608.00
2022-11-17T22:38:05.098Z,94605.00
2022-11-17T22:42:08.678Z,94613.00
2022-11-17T22:46:44.264Z,94640.00
2022-11-17T22:50:47.454Z,94658.00
2022-11-17T22:54:50.603Z,94652.00
2022-11-17T22:58:58.365Z,94653.00
2022-11-17T23:03:31.801Z,94638.00
2022-11-17T23:07:35.093Z,94626.00
2022-11-17T23:11:38.917Z,94618.00
2022-11-17T23:16:12.864Z,94601.00
2022-11-17T23:20:17.986Z,94606.00
2022-11-17T23:24:21.034Z,94597.00
2022-11-17T23:28:24.166Z,94602.00
2022-11-17T23:32:27.290Z,94584.00
2022-11-17T23:36:31.796Z,94577.00
2022-11-17T23:40:34.779Z,94572.00
2022-11-17T23:44:37.853Z,94585.00
2022-11-17T23:48:41.446Z,94579.00
2022-11-17T23:52:45.898Z,94580.00
2022-11-17T23:56:53.147Z,94588.00
